Islip, New York
Current Conditions -  °F | °C
As of 11:56 AM on Sunday 21 Dec 2014 (Local Time) from KISP Reporting Station
Overcast Overcast  
Wind Chill: 29°   Ceiling: 900
Heat Index: 35°   Visibility: 7mi
Dew Point: 30°   Wind: 8mph
Humidity: 82%   Direction: 320°NW
Pressure: 30.26"   Gusts: NA
Location:  40.73°N, 73.21°W
Report Text: KISP 211656Z 32007KT 7SM OVC009 02/M01 A3026 RMK AO2 SLP249 T00171011
Loading
Personal Weather Stations






























Interactive Weather Map New forecast layout! Learn more

10-Day Weather Forecast

Advertisements
Track Severe Weather on mobile